createdAt,value
2023-02-26T00:01:01.281Z,-0.17
2023-02-26T00:03:27.902Z,-0.18
2023-02-26T00:05:54.280Z,-0.18
2023-02-26T00:08:20.641Z,-0.19
2023-02-26T00:10:47.828Z,-0.20
2023-02-26T00:13:14.589Z,-0.22
2023-02-26T00:15:41.215Z,-0.24
2023-02-26T00:18:10.729Z,-0.23
2023-02-26T00:20:37.390Z,-0.23
2023-02-26T00:23:04.289Z,-0.22
2023-02-26T00:25:30.654Z,-0.24
2023-02-26T00:27:57.289Z,-0.22
2023-02-26T00:30:23.913Z,-0.22
2023-02-26T00:32:50.597Z,-0.24
2023-02-26T00:35:17.471Z,-0.26
2023-02-26T00:38:00.617Z,-0.30
2023-02-26T00:40:30.520Z,-0.29
2023-02-26T00:42:57.179Z,-0.30
2023-02-26T00:45:23.850Z,-0.33
2023-02-26T00:48:27.996Z,-0.40
2023-02-26T00:51:07.949Z,-0.40
2023-02-26T00:53:48.196Z,-0.42
2023-02-26T00:56:14.794Z,-0.43
2023-02-26T00:58:41.370Z,-0.42
2023-02-26T01:01:07.783Z,-0.43
2023-02-26T01:03:34.496Z,-0.42
2023-02-26T01:06:01.089Z,-0.40
2023-02-26T01:08:47.875Z,-0.38
2023-02-26T01:11:14.468Z,-0.36
2023-02-26T01:13:41.056Z,-0.39
2023-02-26T01:16:09.624Z,-0.37
2023-02-26T01:18:41.658Z,-0.36
2023-02-26T01:21:09.888Z,-0.44
2023-02-26T01:23:40.436Z,-0.45
2023-02-26T01:26:10.682Z,-0.45
2023-02-26T01:28:37.562Z,-0.45
2023-02-26T01:31:05.750Z,-0.46
2023-02-26T01:33:33.559Z,-0.51
2023-02-26T01:36:10.662Z,-0.52
2023-02-26T01:38:52.146Z,-0.54
2023-02-26T01:41:56.176Z,-0.50
2023-02-26T01:45:01.244Z,-0.56
2023-02-26T01:47:36.283Z,-0.53
2023-02-26T01:50:16.626Z,-0.52
2023-02-26T01:52:49.416Z,-0.53
2023-02-26T01:55:16.886Z,-0.54
2023-02-26T01:57:43.703Z,-0.48
2023-02-26T02:00:10.964Z,-0.48
2023-02-26T02:02:37.430Z,-0.48
2023-02-26T02:05:04.904Z,-0.47
2023-02-26T02:07:31.283Z,-0.42
2023-02-26T02:09:57.832Z,-0.42
2023-02-26T02:12:26.764Z,-0.43
2023-02-26T02:15:11.269Z,-0.45
2023-02-26T02:18:01.124Z,-0.43
2023-02-26T02:20:30.640Z,-0.42
2023-02-26T02:23:15.141Z,-0.43
2023-02-26T02:25:53.692Z,-0.42
2023-02-26T02:28:35.237Z,-0.42
2023-02-26T02:31:37.052Z,-0.41
2023-02-26T02:34:14.219Z,-0.39
2023-02-26T02:36:45.449Z,-0.40
2023-02-26T02:39:25.375Z,-0.37
2023-02-26T02:41:55.488Z,-0.36
2023-02-26T02:44:22.714Z,-0.32
2023-02-26T02:46:49.512Z,-0.30
2023-02-26T02:49:47.158Z,-0.27
2023-02-26T02:52:17.695Z,-0.22
2023-02-26T02:54:49.850Z,-0.24
2023-02-26T02:57:37.810Z,-0.21
2023-02-26T03:00:10.571Z,-0.21
2023-02-26T03:02:37.135Z,-0.19
2023-02-26T03:05:03.713Z,-0.18
2023-02-26T03:07:35.151Z,-0.17
2023-02-26T03:10:01.562Z,-0.19
2023-02-26T03:12:31.616Z,-0.14
2023-02-26T03:14:58.447Z,-0.16
2023-02-26T03:17:32.008Z,-0.17
2023-02-26T03:20:13.605Z,-0.15
2023-02-26T03:23:00.580Z,-0.15
2023-02-26T03:25:35.893Z,-0.11
2023-02-26T03:28:34.733Z,-0.09
2023-02-26T03:31:12.775Z,-0.12
2023-02-26T03:33:45.432Z,-0.09
2023-02-26T03:36:14.971Z,-0.08
2023-02-26T03:38:58.850Z,-0.04
2023-02-26T03:41:42.037Z,-0.03
2023-02-26T03:44:11.352Z,-0.05
2023-02-26T03:46:41.433Z,-0.04
2023-02-26T03:49:12.515Z,-0.02
2023-02-26T03:51:38.911Z,-0.06
2023-02-26T03:54:30.180Z,-0.04
2023-02-26T03:56:56.735Z,-0.01
2023-02-26T03:59:23.424Z,-0.02
2023-02-26T04:02:00.521Z,-0.01
2023-02-26T04:04:37.663Z,0.01
2023-02-26T04:07:04.209Z,-0.01
2023-02-26T04:09:30.613Z,-0.01
2023-02-26T04:11:56.978Z,0.00
2023-02-26T04:14:23.353Z,0.01
2023-02-26T04:16:50.053Z,0.00
2023-02-26T04:19:16.467Z,0.02
2023-02-26T04:21:42.823Z,0.03
2023-02-26T04:24:09.561Z,0.02
2023-02-26T04:26:35.936Z,0.03
2023-02-26T04:29:02.270Z,0.02
2023-02-26T04:31:29.886Z,0.03
2023-02-26T04:33:56.320Z,0.01
2023-02-26T04:36:22.939Z,0.03
2023-02-26T04:38:49.624Z,0.03
2023-02-26T04:41:16.011Z,0.04
2023-02-26T04:43:42.370Z,0.05
2023-02-26T04:46:08.761Z,0.06
2023-02-26T04:48:35.338Z,0.04
2023-02-26T04:51:01.722Z,0.05
2023-02-26T04:53:28.100Z,0.09
2023-02-26T04:55:54.457Z,0.08
2023-02-26T04:58:20.843Z,0.07
2023-02-26T05:00:50.942Z,0.05
2023-02-26T05:03:17.447Z,0.05
2023-02-26T05:05:43.986Z,0.06
2023-02-26T05:08:10.356Z,0.08
2023-02-26T05:10:36.750Z,0.06
2023-02-26T05:13:03.110Z,0.04
2023-02-26T05:15:29.530Z,0.07
2023-02-26T05:17:55.931Z,0.04
2023-02-26T05:20:22.384Z,0.06
2023-02-26T05:22:48.931Z,0.08
2023-02-26T05:25:15.361Z,0.06
2023-02-26T05:27:44.569Z,0.06
2023-02-26T05:30:13.346Z,0.05
2023-02-26T05:32:39.776Z,0.04
2023-02-26T05:35:06.524Z,0.00
2023-02-26T05:37:32.975Z,-0.02
2023-02-26T05:39:59.476Z,-0.03
2023-02-26T05:42:26.117Z,-0.05
2023-02-26T05:44:52.479Z,-0.07
2023-02-26T05:47:19.137Z,-0.12
2023-02-26T05:49:45.553Z,-0.11
2023-02-26T05:52:11.889Z,-0.21
2023-02-26T05:54:38.493Z,-0.20
2023-02-26T05:57:05.132Z,-0.22
2023-02-26T05:59:31.512Z,-0.27
2023-02-26T06:01:58.433Z,-0.30
2023-02-26T06:04:24.847Z,-0.32
2023-02-26T06:06:51.183Z,-0.30
2023-02-26T06:09:17.710Z,-0.31
2023-02-26T06:11:44.080Z,-0.35
2023-02-26T06:14:10.610Z,-0.32
2023-02-26T06:16:36.958Z,-0.37
2023-02-26T06:19:03.506Z,-0.36
2023-02-26T06:21:30.333Z,-0.36
2023-02-26T06:23:56.701Z,-0.35
2023-02-26T06:26:23.930Z,-0.38
2023-02-26T06:28:50.424Z,-0.42
2023-02-26T06:31:16.967Z,-0.42
2023-02-26T06:33:43.374Z,-0.43
2023-02-26T06:36:09.704Z,-0.44
2023-02-26T06:38:36.226Z,-0.44
2023-02-26T06:41:02.610Z,-0.44
2023-02-26T06:43:28.957Z,-0.45
2023-02-26T06:45:58.840Z,-0.42
2023-02-26T06:48:25.898Z,-0.41
2023-02-26T06:50:52.542Z,-0.40
2023-02-26T06:53:18.924Z,-0.37
2023-02-26T06:55:45.851Z,-0.41
2023-02-26T06:58:12.432Z,-0.36
2023-02-26T07:00:39.300Z,-0.31
2023-02-26T07:03:05.775Z,-0.32
2023-02-26T07:05:32.235Z,-0.31
2023-02-26T07:07:58.603Z,-0.31
2023-02-26T07:10:25.296Z,-0.29
2023-02-26T07:12:51.740Z,-0.26
2023-02-26T07:15:18.248Z,-0.25
2023-02-26T07:17:44.608Z,-0.20
2023-02-26T07:20:12.144Z,-0.15
2023-02-26T07:22:38.505Z,-0.11
2023-02-26T07:25:05.316Z,-0.08
2023-02-26T07:27:33.259Z,-0.02
2023-02-26T07:30:00.282Z,-0.01
2023-02-26T07:32:26.671Z,0.01
2023-02-26T07:34:53.018Z,0.00
2023-02-26T07:37:19.555Z,0.01
2023-02-26T07:39:45.893Z,0.03
2023-02-26T07:42:12.371Z,0.06
2023-02-26T07:44:39.070Z,0.04
2023-02-26T07:47:05.443Z,0.08
2023-02-26T07:49:33.916Z,0.07
2023-02-26T07:52:00.457Z,0.12
2023-02-26T07:54:26.808Z,0.14
2023-02-26T07:56:53.205Z,0.12
2023-02-26T07:59:19.669Z,0.14
2023-02-26T08:01:46.089Z,0.17
2023-02-26T08:04:12.489Z,0.18
2023-02-26T08:06:39.099Z,0.24
2023-02-26T08:09:05.492Z,0.27
2023-02-26T08:11:34.072Z,0.29
2023-02-26T08:14:00.433Z,0.31
2023-02-26T08:16:27.008Z,0.33
2023-02-26T08:18:53.610Z,0.35
2023-02-26T08:21:20.242Z,0.35
2023-02-26T08:23:46.573Z,0.37
2023-02-26T08:26:13.996Z,0.43
2023-02-26T08:28:40.860Z,0.46
2023-02-26T08:31:07.384Z,0.51
2023-02-26T08:33:33.929Z,0.49
2023-02-26T08:36:01.849Z,0.50
2023-02-26T08:38:28.894Z,0.55
2023-02-26T08:40:55.302Z,0.57
2023-02-26T08:43:21.877Z,0.60
2023-02-26T08:45:48.607Z,0.66
2023-02-26T08:48:15.176Z,0.66
2023-02-26T08:50:41.749Z,0.68
2023-02-26T08:53:08.100Z,0.70
2023-02-26T08:55:34.489Z,0.69
2023-02-26T08:58:00.994Z,0.71
2023-02-26T09:00:27.358Z,0.75
2023-02-26T09:02:53.766Z,0.80
2023-02-26T09:05:20.163Z,0.80
2023-02-26T09:07:46.514Z,0.75
2023-02-26T09:10:15.302Z,0.80
2023-02-26T09:12:42.152Z,0.88
2023-02-26T09:15:09.326Z,0.91
2023-02-26T09:17:35.778Z,0.91
2023-02-26T09:20:02.580Z,0.90
2023-02-26T09:22:28.965Z,0.85
2023-02-26T09:24:55.360Z,0.89
2023-02-26T09:27:21.832Z,0.95
2023-02-26T09:29:48.212Z,1.04
2023-02-26T09:32:14.698Z,1.11
2023-02-26T09:34:41.321Z,1.20
2023-02-26T09:37:08.541Z,1.22
2023-02-26T09:39:35.256Z,1.27
2023-02-26T09:42:18.708Z,1.32
2023-02-26T09:44:45.087Z,1.30
2023-02-26T09:47:39.343Z,1.32
2023-02-26T09:50:10.879Z,1.33
2023-02-26T09:52:41.800Z,1.37
2023-02-26T09:55:18.345Z,1.41
2023-02-26T09:57:45.654Z,1.40
2023-02-26T10:00:27.153Z,1.50
2023-02-26T10:03:11.928Z,1.62
2023-02-26T10:06:00.940Z,1.69
2023-02-26T10:08:33.353Z,1.80
2023-02-26T10:11:10.937Z,1.91
2023-02-26T10:13:56.737Z,1.94
2023-02-26T10:16:27.993Z,1.94
2023-02-26T10:19:02.386Z,1.89
2023-02-26T10:21:50.999Z,1.91
2023-02-26T10:24:42.022Z,1.94
2023-02-26T10:27:18.923Z,1.89
2023-02-26T10:29:53.836Z,2.08
2023-02-26T10:32:23.207Z,2.12
2023-02-26T10:34:52.093Z,2.22
2023-02-26T10:37:28.489Z,2.30
2023-02-26T10:40:20.902Z,2.25
2023-02-26T10:43:00.249Z,2.29
2023-02-26T10:46:00.478Z,2.45
2023-02-26T10:48:39.078Z,2.46
2023-02-26T10:51:17.483Z,2.37
2023-02-26T10:53:45.741Z,2.41
2023-02-26T10:56:16.599Z,2.37
2023-02-26T10:58:42.956Z,2.45
2023-02-26T11:01:20.289Z,2.75
2023-02-26T11:03:48.721Z,2.71
2023-02-26T11:06:28.762Z,2.71
2023-02-26T11:08:56.306Z,2.86
2023-02-26T11:11:35.551Z,3.00
2023-02-26T11:14:01.927Z,3.13
2023-02-26T11:16:28.376Z,3.21
2023-02-26T11:18:54.938Z,3.31
2023-02-26T11:21:27.179Z,3.41
2023-02-26T11:24:06.431Z,3.44
2023-02-26T11:26:35.138Z,3.31
2023-02-26T11:29:01.598Z,3.26
2023-02-26T11:31:28.624Z,3.20
2023-02-26T11:34:05.959Z,3.28
2023-02-26T11:36:33.350Z,3.44
2023-02-26T11:39:17.866Z,3.57
2023-02-26T11:41:45.322Z,3.41
2023-02-26T11:44:13.733Z,3.48
2023-02-26T11:46:46.371Z,3.53
2023-02-26T11:49:14.446Z,3.92
2023-02-26T11:51:43.478Z,4.12
2023-02-26T11:54:24.274Z,4.32
2023-02-26T11:56:50.757Z,4.32
2023-02-26T11:59:17.078Z,4.15
2023-02-26T12:01:43.481Z,3.84
2023-02-26T12:04:11.596Z,3.80
2023-02-26T12:06:37.947Z,3.96
2023-02-26T12:09:04.439Z,4.08
2023-02-26T12:12:04.673Z,4.30
2023-02-26T12:14:52.882Z,4.16
2023-02-26T12:17:34.080Z,4.17
2023-02-26T12:20:19.869Z,4.25
2023-02-26T12:22:47.022Z,4.36
2023-02-26T12:25:21.669Z,4.40
2023-02-26T12:28:25.204Z,4.40
2023-02-26T12:31:08.466Z,4.62
2023-02-26T12:34:19.877Z,4.65
2023-02-26T12:36:52.270Z,4.61
2023-02-26T12:39:37.507Z,4.39
2023-02-26T12:42:09.997Z,4.34
2023-02-26T12:44:57.363Z,4.63
2023-02-26T12:47:23.727Z,4.66
2023-02-26T12:50:07.267Z,4.51
2023-02-26T12:53:03.393Z,4.63
2023-02-26T12:56:23.451Z,4.60
2023-02-26T12:59:04.784Z,4.72
2023-02-26T13:01:37.217Z,4.73
2023-02-26T13:04:58.246Z,4.83
2023-02-26T13:07:49.324Z,4.91
2023-02-26T13:10:47.165Z,4.98
2023-02-26T13:13:16.584Z,4.84
2023-02-26T13:16:01.523Z,4.92
2023-02-26T13:18:58.918Z,4.93
2023-02-26T13:21:27.606Z,5.07
2023-02-26T13:24:06.466Z,5.20
2023-02-26T13:26:33.436Z,5.14
2023-02-26T13:29:01.723Z,5.11
2023-02-26T13:31:37.193Z,5.13
2023-02-26T13:34:06.914Z,5.01
2023-02-26T13:36:35.277Z,5.16
2023-02-26T13:39:32.422Z,5.33
2023-02-26T13:42:29.675Z,5.07
2023-02-26T13:45:34.376Z,4.93
2023-02-26T13:48:22.500Z,5.03
2023-02-26T13:51:21.352Z,5.08
2023-02-26T13:53:51.560Z,5.10
2023-02-26T13:56:33.064Z,5.06
2023-02-26T13:59:23.814Z,5.04
2023-02-26T14:01:53.917Z,5.10
2023-02-26T14:04:22.219Z,5.08
2023-02-26T14:06:56.680Z,5.14
2023-02-26T14:09:23.026Z,5.06
2023-02-26T14:11:55.515Z,5.03
2023-02-26T14:14:22.062Z,5.05
2023-02-26T14:16:52.384Z,5.01
2023-02-26T14:19:26.849Z,4.93
2023-02-26T14:21:58.814Z,5.01
2023-02-26T14:24:36.680Z,5.11
2023-02-26T14:27:12.503Z,5.16
2023-02-26T14:29:58.483Z,5.25
2023-02-26T14:32:32.904Z,5.26
2023-02-26T14:35:10.345Z,5.18
2023-02-26T14:37:37.906Z,5.12
2023-02-26T14:40:19.401Z,4.90
2023-02-26T14:42:48.316Z,4.79
2023-02-26T14:45:17.617Z,4.63
2023-02-26T14:47:47.518Z,4.67
2023-02-26T14:50:18.928Z,4.73
2023-02-26T14:53:06.239Z,4.63
2023-02-26T14:55:45.383Z,4.57
2023-02-26T14:58:27.916Z,4.57
2023-02-26T15:01:31.870Z,4.52
2023-02-26T15:04:08.177Z,4.48
2023-02-26T15:07:13.488Z,4.51
2023-02-26T15:09:51.948Z,4.51
2023-02-26T15:12:35.958Z,4.51
2023-02-26T15:15:11.760Z,4.58
2023-02-26T15:17:41.088Z,4.55
2023-02-26T15:20:14.535Z,4.51
2023-02-26T15:22:58.512Z,4.36
2023-02-26T15:25:44.101Z,4.28
2023-02-26T15:28:38.401Z,4.22
2023-02-26T15:31:06.512Z,4.22
2023-02-26T15:33:32.972Z,4.24
2023-02-26T15:36:06.565Z,4.24
2023-02-26T15:38:49.344Z,4.22
2023-02-26T15:41:16.167Z,4.14
2023-02-26T15:43:48.056Z,4.10
2023-02-26T15:46:15.117Z,4.12
2023-02-26T15:48:44.516Z,4.11
2023-02-26T15:51:12.769Z,4.05
2023-02-26T15:53:49.973Z,4.03
2023-02-26T15:56:28.724Z,4.01
2023-02-26T15:59:00.645Z,4.00
2023-02-26T16:01:28.106Z,3.97
2023-02-26T16:03:58.075Z,3.95
2023-02-26T16:06:28.985Z,3.91
2023-02-26T16:08:55.481Z,3.90
2023-02-26T16:11:21.883Z,3.87
2023-02-26T16:13:49.636Z,3.82
2023-02-26T16:16:22.210Z,3.74
2023-02-26T16:18:48.582Z,3.75
2023-02-26T16:21:38.489Z,3.68
2023-02-26T16:24:05.353Z,3.67
2023-02-26T16:26:34.118Z,3.64
2023-02-26T16:29:03.201Z,3.57
2023-02-26T16:31:31.564Z,3.42
2023-02-26T16:34:03.609Z,3.42
2023-02-26T16:36:38.350Z,3.39
2023-02-26T16:39:04.682Z,3.37
2023-02-26T16:41:33.827Z,3.38
2023-02-26T16:44:01.464Z,3.32
2023-02-26T16:46:30.931Z,3.26
2023-02-26T16:49:11.467Z,3.21
2023-02-26T16:51:38.515Z,3.15
2023-02-26T16:54:08.749Z,3.09
2023-02-26T16:56:38.878Z,3.05
2023-02-26T16:59:07.893Z,2.97
2023-02-26T17:01:48.306Z,2.92
2023-02-26T17:04:15.565Z,2.90
2023-02-26T17:06:42.417Z,2.88
2023-02-26T17:09:35.590Z,2.78
2023-02-26T17:12:11.735Z,2.73
2023-02-26T17:14:40.911Z,2.63
2023-02-26T17:17:07.393Z,2.60
2023-02-26T17:19:34.047Z,2.54
2023-02-26T17:22:00.459Z,2.42
2023-02-26T17:24:31.050Z,2.36
2023-02-26T17:26:57.451Z,2.34
2023-02-26T17:29:38.832Z,2.30
2023-02-26T17:32:06.110Z,2.30
2023-02-26T17:34:32.903Z,2.23
2023-02-26T17:36:59.757Z,2.13
2023-02-26T17:39:26.128Z,2.04
2023-02-26T17:41:52.619Z,1.97
2023-02-26T17:44:19.705Z,1.97
2023-02-26T17:46:46.158Z,1.98
2023-02-26T17:49:12.561Z,2.00
2023-02-26T17:51:39.412Z,1.99
2023-02-26T17:54:05.832Z,2.01
2023-02-26T17:56:32.905Z,2.00
2023-02-26T17:58:59.443Z,1.98
2023-02-26T18:01:29.941Z,1.93
2023-02-26T18:03:56.923Z,1.90
2023-02-26T18:06:24.050Z,1.90
2023-02-26T18:08:50.596Z,1.84
2023-02-26T18:11:17.320Z,1.79
2023-02-26T18:13:43.737Z,1.75
2023-02-26T18:16:14.941Z,1.71
2023-02-26T18:18:41.303Z,1.72
2023-02-26T18:21:08.024Z,1.71
2023-02-26T18:23:34.423Z,1.70
2023-02-26T18:26:02.542Z,1.69
2023-02-26T18:28:28.966Z,1.69
2023-02-26T18:30:56.058Z,1.64
2023-02-26T18:33:22.647Z,1.64
2023-02-26T18:35:53.015Z,1.57
2023-02-26T18:38:20.157Z,1.54
2023-02-26T18:40:46.997Z,1.51
2023-02-26T18:43:13.558Z,1.51
2023-02-26T18:45:44.155Z,1.47
2023-02-26T18:48:12.136Z,1.46
2023-02-26T18:50:38.570Z,1.40
2023-02-26T18:53:04.928Z,1.40
2023-02-26T18:55:31.341Z,1.43
2023-02-26T18:57:57.749Z,1.33
2023-02-26T19:00:24.260Z,1.32
2023-02-26T19:02:50.822Z,1.30
2023-02-26T19:05:18.682Z,1.25
2023-02-26T19:07:45.133Z,1.16
2023-02-26T19:10:14.465Z,1.06
2023-02-26T19:12:41.365Z,1.00
2023-02-26T19:15:08.297Z,0.92
2023-02-26T19:17:34.728Z,0.84
2023-02-26T19:20:01.339Z,0.75
2023-02-26T19:22:27.737Z,0.64
2023-02-26T19:24:54.754Z,0.55
2023-02-26T19:27:21.129Z,0.46
2023-02-26T19:29:47.562Z,0.41
2023-02-26T19:32:15.182Z,0.32
2023-02-26T19:34:41.871Z,0.24
2023-02-26T19:37:10.537Z,0.15
2023-02-26T19:39:37.504Z,0.12
2023-02-26T19:42:04.002Z,0.08
2023-02-26T19:44:32.445Z,0.05
2023-02-26T19:46:59.103Z,0.01
2023-02-26T19:49:25.522Z,0.01
2023-02-26T19:51:51.940Z,0.00
2023-02-26T19:54:18.398Z,-0.03
2023-02-26T19:56:45.013Z,-0.06
2023-02-26T19:59:12.291Z,-0.10
2023-02-26T20:01:39.677Z,-0.12
2023-02-26T20:04:06.078Z,-0.16
2023-02-26T20:06:32.608Z,-0.19
2023-02-26T20:08:58.948Z,-0.19
2023-02-26T20:11:25.804Z,-0.22
2023-02-26T20:13:52.404Z,-0.24
2023-02-26T20:16:18.912Z,-0.25
2023-02-26T20:18:46.104Z,-0.26
2023-02-26T20:21:12.572Z,-0.27
2023-02-26T20:23:39.340Z,-0.34
2023-02-26T20:26:08.172Z,-0.34
2023-02-26T20:28:34.591Z,-0.33
2023-02-26T20:31:01.081Z,-0.34
2023-02-26T20:33:27.645Z,-0.36
2023-02-26T20:35:54.198Z,-0.39
2023-02-26T20:38:20.862Z,-0.40
2023-02-26T20:40:47.703Z,-0.41
2023-02-26T20:43:14.230Z,-0.46
2023-02-26T20:45:40.849Z,-0.47
2023-02-26T20:48:07.546Z,-0.52
2023-02-26T20:50:34.876Z,-0.53
2023-02-26T20:53:01.282Z,-0.56
2023-02-26T20:55:27.636Z,-0.60
2023-02-26T20:57:55.116Z,-0.61
2023-02-26T21:00:21.878Z,-0.62
2023-02-26T21:02:48.258Z,-0.64
2023-02-26T21:05:15.056Z,-0.67
2023-02-26T21:07:41.568Z,-0.69
2023-02-26T21:10:11.533Z,-0.77
2023-02-26T21:12:38.036Z,-0.77
2023-02-26T21:15:05.393Z,-0.80
2023-02-26T21:17:32.571Z,-0.84
2023-02-26T21:19:59.149Z,-0.86
2023-02-26T21:22:25.487Z,-0.88
2023-02-26T21:24:51.846Z,-0.91
2023-02-26T21:27:18.206Z,-0.94
2023-02-26T21:29:44.552Z,-0.98
2023-02-26T21:32:11.033Z,-1.00
2023-02-26T21:34:37.411Z,-1.03
2023-02-26T21:37:05.514Z,-1.01
2023-02-26T21:39:32.520Z,-0.98
2023-02-26T21:42:00.221Z,-1.02
2023-02-26T21:44:27.052Z,-1.03
2023-02-26T21:46:53.487Z,-1.04
2023-02-26T21:49:19.857Z,-1.07
2023-02-26T21:51:46.214Z,-1.13
2023-02-26T21:54:12.753Z,-1.16
2023-02-26T21:56:39.104Z,-1.17
2023-02-26T21:59:05.554Z,-1.20
2023-02-26T22:01:31.981Z,-1.24
2023-02-26T22:03:58.394Z,-1.28
2023-02-26T22:06:24.752Z,-1.30
2023-02-26T22:08:51.120Z,-1.30
2023-02-26T22:11:17.490Z,-1.32
2023-02-26T22:13:43.905Z,-1.32
2023-02-26T22:16:10.345Z,-1.33
2023-02-26T22:18:37.112Z,-1.32
2023-02-26T22:21:03.643Z,-1.32
2023-02-26T22:23:29.980Z,-1.34
2023-02-26T22:25:56.318Z,-1.33
2023-02-26T22:28:22.775Z,-1.38
2023-02-26T22:30:49.200Z,-1.31
2023-02-26T22:33:15.637Z,-1.34
2023-02-26T22:35:43.179Z,-1.37
2023-02-26T22:38:09.596Z,-1.38
2023-02-26T22:40:36.361Z,-1.40
2023-02-26T22:43:04.113Z,-1.45
2023-02-26T22:45:30.513Z,-1.49
2023-02-26T22:47:57.061Z,-1.53
2023-02-26T22:50:23.528Z,-1.54
2023-02-26T22:52:49.886Z,-1.48
2023-02-26T22:55:16.553Z,-1.45
2023-02-26T22:57:42.901Z,-1.45
2023-02-26T23:00:18.698Z,-1.51
2023-02-26T23:02:46.288Z,-1.50
2023-02-26T23:05:12.701Z,-1.47
2023-02-26T23:07:39.720Z,-1.44
2023-02-26T23:10:10.430Z,-1.43
2023-02-26T23:12:37.142Z,-1.50
2023-02-26T23:15:03.595Z,-1.56
2023-02-26T23:17:30.257Z,-1.64
2023-02-26T23:19:56.658Z,-1.67
2023-02-26T23:22:23.128Z,-1.71
2023-02-26T23:24:49.673Z,-1.75
2023-02-26T23:27:16.115Z,-1.80
2023-02-26T23:29:42.554Z,-1.84
2023-02-26T23:32:09.193Z,-1.80
2023-02-26T23:34:35.576Z,-1.82
2023-02-26T23:37:01.940Z,-1.85
2023-02-26T23:39:28.714Z,-1.88
2023-02-26T23:41:56.109Z,-1.92
2023-02-26T23:44:22.792Z,-1.98
2023-02-26T23:46:49.311Z,-1.96
2023-02-26T23:49:18.540Z,-1.97
2023-02-26T23:51:48.052Z,-1.97
2023-02-26T23:54:14.438Z,-1.97
2023-02-26T23:56:40.831Z,-2.02
2023-02-26T23:59:07.716Z,-2.02
